Time;durP1;ratioP1;P1;durP2;ratioP2;P2;SDS_P1;SDS_P2;PMS_P1;PMS_P2;Temp;Humidity;BMP_temperature;BMP_pressure;BME280_temperature;BME280_humidity;BME280_pressure;Samples;Min_cycle;Max_cycle;Signal;HPM_P1;HPM_P2
2021/09/12 00:02:09;;;;;;;10.00;7.90;;;;;;;;;;5035487;28;20474;-73
2021/09/12 00:04:36;;;;;;;9.23;7.57;;;;;;;;;;5034949;28;20461;-72
2021/09/12 00:07:04;;;;;;;9.33;8.40;;;;;;;;;;5042770;28;20461;-73
2021/09/12 00:09:32;;;;;;;13.80;11.77;;;;;;;;;;5040231;28;20954;-73
2021/09/12 00:12:00;;;;;;;9.43;7.27;;;;;;;;;;5048797;28;20466;-72
2021/09/12 00:14:32;;;;;;;11.97;8.43;;;;;;;;;;5046581;28;20545;-73
2021/09/12 00:16:59;;;;;;;8.70;7.00;;;;;;;;;;5036840;28;20544;-73
2021/09/12 00:19:32;;;;;;;10.70;8.10;;;;;;;;;;5036547;28;20458;-73
2021/09/12 00:22:00;;;;;;;9.57;7.53;;;;;;;;;;5055492;28;20472;-72
2021/09/12 00:24:28;;;;;;;7.97;6.73;;;;;;;;;;5056294;28;20453;-73
2021/09/12 00:26:56;;;;;;;15.40;7.93;;;;;;;;;;5056827;28;20944;-73
2021/09/12 00:29:23;;;;;;;11.07;7.40;;;;;;;;;;5059301;28;20452;-73
2021/09/12 00:31:51;;;;;;;12.00;7.57;;;;;;;;;;5059780;28;20879;-73
2021/09/12 00:34:19;;;;;;;10.30;7.67;;;;;;;;;;5058600;28;20552;-73
2021/09/12 00:36:48;;;;;;;10.43;8.13;;;;;;;;;;5059650;28;20520;-73
2021/09/12 00:39:16;;;;;;;9.83;7.63;;;;;;;;;;5059268;28;20523;-73
2021/09/12 00:41:46;;;;;;;11.10;7.27;;;;;;;;;;5059621;28;20475;-72
2021/09/12 00:44:14;;;;;;;10.77;7.60;;;;;;;;;;5059421;28;20484;-73
2021/09/12 00:46:42;;;;;;;13.47;9.20;;;;;;;;;;5059837;28;20560;-73
2021/09/12 00:49:10;;;;;;;10.17;8.17;;;;;;;;;;5059684;28;20824;-73
2021/09/12 00:51:38;;;;;;;10.00;7.47;;;;;;;;;;5060156;28;20473;-73
2021/09/12 00:54:08;;;;;;;14.53;9.03;;;;;;;;;;5060420;28;20543;-73
2021/09/12 00:56:39;;;;;;;10.30;8.30;;;;;;;;;;5059953;28;20489;-72
2021/09/12 00:59:11;;;;;;;11.60;8.20;;;;;;;;;;5059586;28;20883;-73
2021/09/12 01:01:41;;;;;;;10.13;7.93;;;;;;;;;;5059929;28;20461;-72
2021/09/12 01:04:12;;;;;;;13.70;8.27;;;;;;;;;;5059836;28;20962;-72
2021/09/12 01:06:44;;;;;;;12.83;9.17;;;;;;;;;;5059356;28;20493;-71
2021/09/12 01:09:13;;;;;;;13.03;9.00;;;;;;;;;;5059295;28;20511;-72
2021/09/12 01:11:41;;;;;;;12.47;8.30;;;;;;;;;;5059010;28;20469;-72
2021/09/12 01:14:09;;;;;;;12.50;9.00;;;;;;;;;;5058961;28;20824;-73
2021/09/12 01:16:37;;;;;;;10.90;7.47;;;;;;;;;;5058880;28;20489;-73
2021/09/12 01:19:06;;;;;;;12.00;8.80;;;;;;;;;;5059305;28;20810;-72
2021/09/12 01:21:34;;;;;;;11.10;8.67;;;;;;;;;;5058650;28;20500;-73
2021/09/12 01:24:02;;;;;;;15.53;8.80;;;;;;;;;;5058459;28;20557;-72
2021/09/12 01:26:32;;;;;;;13.40;10.10;;;;;;;;;;5058922;28;20460;-73
2021/09/12 01:28:59;;;;;;;13.80;8.67;;;;;;;;;;5058632;28;20458;-73
2021/09/12 01:31:28;;;;;;;11.53;8.83;;;;;;;;;;5057818;28;20465;-73
2021/09/12 01:33:56;;;;;;;17.30;11.37;;;;;;;;;;5059005;28;20458;-73
2021/09/12 01:36:24;;;;;;;13.27;10.30;;;;;;;;;;5058560;28;20497;-73
2021/09/12 01:38:52;;;;;;;16.10;11.97;;;;;;;;;;5058020;28;20794;-72
2021/09/12 01:41:19;;;;;;;13.97;11.17;;;;;;;;;;5058864;28;20568;-73
2021/09/12 01:43:49;;;;;;;13.87;10.07;;;;;;;;;;5058190;28;20547;-73
2021/09/12 01:46:18;;;;;;;15.53;11.20;;;;;;;;;;5058345;28;20477;-73
2021/09/12 01:48:45;;;;;;;19.07;12.87;;;;;;;;;;5058338;28;20559;-73
2021/09/12 01:51:13;;;;;;;20.30;11.87;;;;;;;;;;5058091;28;20488;-73
2021/09/12 01:53:41;;;;;;;19.27;12.20;;;;;;;;;;5058218;28;20461;-73
2021/09/12 01:56:09;;;;;;;18.50;12.87;;;;;;;;;;5058002;28;20515;-73
2021/09/12 01:58:40;;;;;;;21.20;14.43;;;;;;;;;;5057262;28;20885;-73
2021/09/12 02:01:09;;;;;;;22.23;14.40;;;;;;;;;;5059095;28;20710;-73
2021/09/12 02:03:37;;;;;;;21.10;15.20;;;;;;;;;;5058795;28;20461;-73
2021/09/12 02:06:04;;;;;;;23.60;15.20;;;;;;;;;;5058878;28;20921;-73
2021/09/12 02:08:32;;;;;;;24.93;16.13;;;;;;;;;;5059068;28;20813;-73
2021/09/12 02:11:00;;;;;;;27.10;17.53;;;;;;;;;;5057788;28;20465;-73
2021/09/12 02:13:28;;;;;;;27.03;17.83;;;;;;;;;;5057990;28;20753;-73
2021/09/12 02:15:55;;;;;;;31.27;18.87;;;;;;;;;;5057918;28;20461;-73
2021/09/12 02:18:27;;;;;;;28.77;18.10;;;;;;;;;;5057562;28;20850;-73
2021/09/12 02:20:55;;;;;;;28.53;17.77;;;;;;;;;;5058382;28;20560;-72
2021/09/12 02:23:23;;;;;;;25.27;17.27;;;;;;;;;;5058338;28;21055;-73
2021/09/12 02:25:50;;;;;;;31.33;20.23;;;;;;;;;;5058349;28;20495;-72
2021/09/12 02:28:18;;;;;;;28.37;18.47;;;;;;;;;;5058199;28;20480;-73
2021/09/12 02:30:46;;;;;;;25.00;18.17;;;;;;;;;;5058699;28;20502;-73
2021/09/12 02:33:14;;;;;;;29.80;19.53;;;;;;;;;;5058281;28;20552;-73
2021/09/12 02:35:43;;;;;;;34.90;22.17;;;;;;;;;;5058335;28;20453;-73
2021/09/12 02:38:12;;;;;;;30.87;19.20;;;;;;;;;;5058712;28;20457;-72
2021/09/12 02:40:40;;;;;;;32.30;20.90;;;;;;;;;;5058169;28;20503;-73
2021/09/12 02:43:08;;;;;;;29.67;20.10;;;;;;;;;;5057964;28;20531;-73
2021/09/12 02:45:36;;;;;;;31.20;20.50;;;;;;;;;;5057964;28;20457;-73
2021/09/12 02:48:03;;;;;;;28.57;20.23;;;;;;;;;;5057667;28;20465;-71
2021/09/12 02:50:31;;;;;;;26.87;18.30;;;;;;;;;;5056987;28;20453;-71
2021/09/12 02:53:00;;;;;;;39.30;22.83;;;;;;;;;;5054424;28;20466;-71
2021/09/12 02:55:28;;;;;;;31.70;21.77;;;;;;;;;;5037921;28;20729;-71
2021/09/12 02:57:56;;;;;;;29.67;20.80;;;;;;;;;;5037414;28;20490;-72
2021/09/12 03:00:23;;;;;;;36.90;22.50;;;;;;;;;;5037732;28;20486;-72
2021/09/12 03:02:51;;;;;;;34.37;20.43;;;;;;;;;;5038136;28;20462;-72
2021/09/12 03:05:19;;;;;;;35.13;21.70;;;;;;;;;;5044258;28;20477;-72
2021/09/12 03:07:46;;;;;;;34.80;22.40;;;;;;;;;;5047076;28;20893;-72
2021/09/12 03:10:15;;;;;;;35.40;21.10;;;;;;;;;;5037442;28;20716;-72
2021/09/12 03:12:43;;;;;;;32.83;21.80;;;;;;;;;;5037523;28;20504;-72
2021/09/12 03:15:11;;;;;;;38.13;20.20;;;;;;;;;;5037086;28;20469;-72
2021/09/12 03:17:39;;;;;;;29.77;19.00;;;;;;;;;;5036780;28;20569;-72
2021/09/12 03:20:07;;;;;;;38.33;22.30;;;;;;;;;;5037054;28;20466;-72
2021/09/12 03:22:35;;;;;;;31.07;22.13;;;;;;;;;;5037437;28;20524;-72
2021/09/12 03:25:03;;;;;;;34.17;19.13;;;;;;;;;;5037334;28;20929;-72
2021/09/12 03:27:32;;;;;;;33.33;21.57;;;;;;;;;;5052209;28;20749;-71
2021/09/12 03:30:00;;;;;;;33.60;19.53;;;;;;;;;;5057921;28;20519;-73
2021/09/12 03:32:28;;;;;;;35.23;22.07;;;;;;;;;;5056941;28;20714;-73
2021/09/12 03:34:56;;;;;;;34.53;21.67;;;;;;;;;;5057430;28;20462;-73
2021/09/12 03:37:23;;;;;;;38.63;21.87;;;;;;;;;;5056941;28;20777;-73
2021/09/12 03:39:51;;;;;;;34.77;22.63;;;;;;;;;;5056738;28;20461;-73
2021/09/12 03:42:19;;;;;;;35.73;21.53;;;;;;;;;;5056970;28;20492;-73
2021/09/12 03:44:48;;;;;;;35.20;21.10;;;;;;;;;;5057165;28;21067;-73
2021/09/12 03:47:16;;;;;;;32.70;20.60;;;;;;;;;;5057229;28;20457;-73
2021/09/12 03:49:43;;;;;;;38.83;21.50;;;;;;;;;;5056627;28;20469;-73
2021/09/12 03:52:11;;;;;;;36.63;20.77;;;;;;;;;;5056431;28;20462;-73
2021/09/12 03:54:39;;;;;;;36.63;22.53;;;;;;;;;;5056878;28;20454;-73
2021/09/12 03:57:07;;;;;;;38.90;21.90;;;;;;;;;;5056160;28;20485;-73
2021/09/12 03:59:35;;;;;;;35.57;20.97;;;;;;;;;;5055890;28;20917;-73
2021/09/12 04:02:04;;;;;;;32.13;19.80;;;;;;;;;;5056919;28;20795;-73
2021/09/12 04:04:34;;;;;;;33.50;21.00;;;;;;;;;;5056768;28;20461;-73
2021/09/12 04:07:02;;;;;;;37.73;24.27;;;;;;;;;;5053657;28;20556;-73
2021/09/12 04:09:30;;;;;;;42.93;24.40;;;;;;;;;;5036993;28;20462;-73
2021/09/12 04:11:57;;;;;;;36.47;22.20;;;;;;;;;;5036578;28;20793;-73
2021/09/12 04:14:25;;;;;;;34.23;20.47;;;;;;;;;;5037036;28;20454;-73
2021/09/12 04:16:53;;;;;;;39.23;22.40;;;;;;;;;;5036646;28;20890;-73
2021/09/12 04:19:22;;;;;;;36.90;21.20;;;;;;;;;;5036932;28;20476;-73
2021/09/12 04:21:49;;;;;;;35.70;23.30;;;;;;;;;;5036498;28;20470;-73
2021/09/12 04:24:17;;;;;;;33.87;21.57;;;;;;;;;;5036092;28;20458;-73
2021/09/12 04:26:45;;;;;;;33.37;22.30;;;;;;;;;;5036136;28;20468;-73
2021/09/12 04:29:12;;;;;;;33.20;20.93;;;;;;;;;;5035392;28;20556;-73
2021/09/12 04:31:40;;;;;;;34.43;21.00;;;;;;;;;;5036366;28;20462;-73
2021/09/12 04:34:08;;;;;;;39.70;22.73;;;;;;;;;;5036124;28;20527;-73
2021/09/12 04:36:37;;;;;;;39.50;22.00;;;;;;;;;;5036092;28;20588;-73
2021/09/12 04:39:05;;;;;;;36.90;22.67;;;;;;;;;;5035919;28;20466;-73
2021/09/12 04:41:33;;;;;;;42.07;22.03;;;;;;;;;;5036031;28;20754;-73
2021/09/12 04:44:01;;;;;;;34.57;22.60;;;;;;;;;;5035743;28;20737;-72
2021/09/12 04:46:29;;;;;;;42.40;22.40;;;;;;;;;;5035509;28;20454;-73
2021/09/12 04:48:57;;;;;;;36.13;22.17;;;;;;;;;;5035524;28;20458;-73
2021/09/12 04:51:25;;;;;;;41.63;21.10;;;;;;;;;;5035767;28;20541;-72
2021/09/12 04:53:55;;;;;;;38.60;23.23;;;;;;;;;;5036056;28;20752;-73
2021/09/12 04:56:23;;;;;;;32.80;21.43;;;;;;;;;;5035810;28;20738;-72
2021/09/12 04:58:51;;;;;;;34.97;22.27;;;;;;;;;;5035867;28;20497;-72
2021/09/12 05:01:19;;;;;;;36.07;22.30;;;;;;;;;;5035842;28;20494;-72
2021/09/12 05:03:47;;;;;;;41.23;20.73;;;;;;;;;;5035821;28;20470;-72
2021/09/12 05:06:15;;;;;;;37.77;22.70;;;;;;;;;;5034974;28;20840;-72
2021/09/12 05:08:43;;;;;;;38.53;22.43;;;;;;;;;;5034812;28;20466;-73
2021/09/12 05:11:12;;;;;;;35.57;22.67;;;;;;;;;;5035408;28;20454;-72
2021/09/12 05:13:40;;;;;;;34.60;22.03;;;;;;;;;;5037336;28;20454;-72
2021/09/12 05:16:08;;;;;;;40.30;22.57;;;;;;;;;;5038616;28;20577;-73
2021/09/12 05:18:36;;;;;;;37.70;24.47;;;;;;;;;;5038999;28;20548;-73
2021/09/12 05:21:04;;;;;;;35.20;21.10;;;;;;;;;;5038972;28;20923;-72
2021/09/12 05:23:32;;;;;;;40.47;23.87;;;;;;;;;;5039389;28;20458;-72
2021/09/12 05:26:00;;;;;;;41.87;22.53;;;;;;;;;;5039043;28;20508;-74
2021/09/12 05:28:29;;;;;;;39.60;23.77;;;;;;;;;;5038978;28;20539;-72
2021/09/12 05:30:57;;;;;;;35.47;22.20;;;;;;;;;;5039168;28;21104;-72
2021/09/12 05:33:25;;;;;;;41.73;23.27;;;;;;;;;;5038823;28;20520;-72
2021/09/12 05:35:52;;;;;;;38.70;21.80;;;;;;;;;;5038560;28;20892;-72
2021/09/12 05:38:20;;;;;;;42.07;23.03;;;;;;;;;;5038806;28;20932;-72
2021/09/12 05:40:48;;;;;;;35.37;22.60;;;;;;;;;;5038667;28;20481;-73
2021/09/12 05:43:16;;;;;;;38.70;21.37;;;;;;;;;;5039079;28;20722;-72
2021/09/12 05:45:45;;;;;;;34.93;21.43;;;;;;;;;;5037902;28;20557;-73
2021/09/12 05:48:14;;;;;;;34.77;21.27;;;;;;;;;;5038987;28;20501;-72
2021/09/12 05:50:41;;;;;;;40.93;21.93;;;;;;;;;;5038308;28;20469;-73
2021/09/12 05:53:17;;;;;;;36.53;22.67;;;;;;;;;;5038572;28;20536;-72
2021/09/12 05:55:47;;;;;;;35.13;21.13;;;;;;;;;;5038546;28;20462;-72
2021/09/12 05:58:14;;;;;;;35.00;21.40;;;;;;;;;;5037877;28;20736;-72
2021/09/12 06:00:42;;;;;;;40.20;24.10;;;;;;;;;;5038292;28;20458;-76
2021/09/12 06:03:11;;;;;;;36.57;22.43;;;;;;;;;;5038588;28;20925;-73
2021/09/12 06:05:39;;;;;;;35.37;19.87;;;;;;;;;;5037694;28;20458;-73
2021/09/12 06:08:10;;;;;;;31.37;20.27;;;;;;;;;;5038103;28;20473;-73
2021/09/12 06:10:38;;;;;;;36.83;21.97;;;;;;;;;;5037720;28;20513;-73
2021/09/12 06:13:06;;;;;;;30.20;21.70;;;;;;;;;;5037276;28;20624;-73
2021/09/12 06:15:33;;;;;;;30.87;21.07;;;;;;;;;;5037945;28;20485;-73
2021/09/12 06:18:02;;;;;;;33.30;20.80;;;;;;;;;;5043473;28;20788;-73
2021/09/12 06:20:32;;;;;;;29.73;19.73;;;;;;;;;;5057650;28;20601;-73
2021/09/12 06:23:00;;;;;;;32.77;20.13;;;;;;;;;;5058262;28;20555;-73
2021/09/12 06:25:31;;;;;;;28.20;19.97;;;;;;;;;;5056887;28;20771;-73
2021/09/12 06:28:02;;;;;;;26.40;18.53;;;;;;;;;;5057120;28;20461;-73
2021/09/12 06:30:33;;;;;;;26.70;19.63;;;;;;;;;;5058297;28;20465;-72
2021/09/12 06:33:01;;;;;;;33.27;19.90;;;;;;;;;;5058237;28;20527;-72
2021/09/12 06:35:29;;;;;;;31.80;19.27;;;;;;;;;;5057384;28;20531;-73
2021/09/12 06:37:58;;;;;;;33.73;19.07;;;;;;;;;;5056473;28;20555;-73
2021/09/12 06:40:30;;;;;;;30.57;18.70;;;;;;;;;;5057148;28;20453;-73
2021/09/12 06:42:59;;;;;;;31.13;19.37;;;;;;;;;;5056906;28;20457;-73
2021/09/12 06:45:27;;;;;;;28.97;20.47;;;;;;;;;;5057211;28;20449;-73
2021/09/12 06:47:55;;;;;;;27.90;19.70;;;;;;;;;;5051895;28;20930;-72
2021/09/12 06:50:23;;;;;;;26.90;17.07;;;;;;;;;;5056965;28;20448;-73
2021/09/12 06:52:54;;;;;;;24.87;17.80;;;;;;;;;;5057486;28;20464;-72
2021/09/12 06:55:23;;;;;;;26.80;18.13;;;;;;;;;;5057439;28;20519;-71
2021/09/12 06:57:53;;;;;;;31.57;20.60;;;;;;;;;;5056827;28;20978;-73
2021/09/12 07:00:21;;;;;;;30.53;18.80;;;;;;;;;;5056334;28;20461;-73
2021/09/12 07:02:52;;;;;;;32.83;18.80;;;;;;;;;;5055558;28;20819;-73
2021/09/12 07:08:25;;;;;;;30.23;19.57;;;;;;;;;;5036845;28;20801;-73
2021/09/12 07:10:54;;;;;;;32.43;20.83;;;;;;;;;;5053492;28;20733;-73
2021/09/12 07:13:22;;;;;;;29.13;18.40;;;;;;;;;;5036474;28;20455;-73
2021/09/12 07:15:52;;;;;;;32.37;18.57;;;;;;;;;;5042740;28;20449;-73
2021/09/12 07:18:20;;;;;;;25.73;16.97;;;;;;;;;;5036209;28;20941;-73
2021/09/12 07:20:48;;;;;;;28.40;19.33;;;;;;;;;;5036427;28;20466;-73
2021/09/12 07:23:17;;;;;;;27.10;18.43;;;;;;;;;;5037207;28;20481;-72
2021/09/12 07:25:45;;;;;;;31.23;18.53;;;;;;;;;;5052759;28;20454;-72
2021/09/12 07:28:14;;;;;;;26.77;17.47;;;;;;;;;;5035890;28;20564;-72
2021/09/12 07:30:42;;;;;;;28.30;17.27;;;;;;;;;;5041654;28;20514;-72
2021/09/12 07:33:14;;;;;;;28.37;16.00;;;;;;;;;;5035982;28;20512;-72
2021/09/12 07:35:42;;;;;;;24.60;15.13;;;;;;;;;;5035467;28;20462;-72
2021/09/12 07:38:11;;;;;;;19.23;15.87;;;;;;;;;;5050317;28;20489;-73
2021/09/12 07:40:42;;;;;;;22.23;16.97;;;;;;;;;;5043497;28;20459;-73
2021/09/12 07:43:10;;;;;;;26.00;17.10;;;;;;;;;;5043236;28;20466;-72
2021/09/12 07:45:40;;;;;;;20.87;14.80;;;;;;;;;;5042094;28;20478;-71
2021/09/12 07:48:08;;;;;;;24.40;18.10;;;;;;;;;;5035214;28;20505;-72
2021/09/12 07:50:35;;;;;;;22.27;15.33;;;;;;;;;;5035362;28;20573;-71
2021/09/12 07:53:03;;;;;;;20.70;13.80;;;;;;;;;;5036059;28;20817;-73
2021/09/12 07:55:31;;;;;;;21.70;14.10;;;;;;;;;;5036715;28;20461;-72
2021/09/12 07:57:59;;;;;;;24.40;14.00;;;;;;;;;;5040566;28;20478;-72
2021/09/12 08:00:27;;;;;;;17.10;13.90;;;;;;;;;;5040318;28;20841;-72
2021/09/12 08:02:57;;;;;;;18.50;13.00;;;;;;;;;;5034993;28;20891;-72
2021/09/12 08:05:24;;;;;;;17.57;13.70;;;;;;;;;;5035014;28;20466;-72
2021/09/12 08:07:52;;;;;;;18.10;13.63;;;;;;;;;;5034442;28;20959;-72
2021/09/12 08:10:21;;;;;;;17.87;13.43;;;;;;;;;;5033953;28;20454;-72
2021/09/12 08:12:49;;;;;;;18.77;13.70;;;;;;;;;;5033940;28;20470;-72
2021/09/12 08:15:17;;;;;;;22.77;16.70;;;;;;;;;;5039168;28;20458;-72
2021/09/12 08:17:45;;;;;;;19.17;12.90;;;;;;;;;;5054204;28;20734;-72
2021/09/12 08:20:14;;;;;;;23.40;14.30;;;;;;;;;;5035173;28;20454;-72
2021/09/12 08:22:42;;;;;;;23.17;15.50;;;;;;;;;;5034843;28;20867;-72
2021/09/12 08:25:11;;;;;;;22.67;14.80;;;;;;;;;;5035102;28;20831;-72
2021/09/12 08:27:39;;;;;;;22.33;13.30;;;;;;;;;;5033994;28;20545;-72
2021/09/12 08:30:08;;;;;;;18.67;13.97;;;;;;;;;;5034236;28;20789;-72
2021/09/12 08:32:36;;;;;;;15.73;11.10;;;;;;;;;;5034876;28;20462;-72
2021/09/12 08:35:04;;;;;;;17.13;12.50;;;;;;;;;;5034514;28;20497;-72
2021/09/12 08:37:34;;;;;;;20.43;14.63;;;;;;;;;;5033721;28;20461;-72
2021/09/12 08:40:02;;;;;;;16.60;11.43;;;;;;;;;;5036116;28;20498;-72
2021/09/12 08:42:30;;;;;;;18.53;12.53;;;;;;;;;;5035143;28;20591;-72
2021/09/12 08:44:58;;;;;;;19.67;13.20;;;;;;;;;;5035244;28;20545;-72
2021/09/12 08:47:27;;;;;;;15.60;12.27;;;;;;;;;;5034593;28;20451;-72
2021/09/12 08:49:56;;;;;;;27.00;12.13;;;;;;;;;;5042242;28;20481;-73
2021/09/12 08:52:23;;;;;;;18.03;12.30;;;;;;;;;;5038489;28;20839;-72
2021/09/12 08:54:53;;;;;;;19.10;12.07;;;;;;;;;;5038498;28;20493;-73
2021/09/12 08:57:27;;;;;;;14.40;10.80;;;;;;;;;;5038449;28;20462;-72
2021/09/12 08:59:55;;;;;;;18.20;12.30;;;;;;;;;;5038896;28;20493;-71
2021/09/12 09:02:26;;;;;;;20.27;12.60;;;;;;;;;;5038109;28;20450;-72
2021/09/12 09:05:02;;;;;;;17.43;12.53;;;;;;;;;;5044141;28;20834;-71
2021/09/12 09:07:30;;;;;;;16.80;12.20;;;;;;;;;;5057415;28;20531;-73
2021/09/12 09:10:01;;;;;;;16.50;11.97;;;;;;;;;;5048515;28;20790;-72
2021/09/12 09:12:32;;;;;;;17.13;10.87;;;;;;;;;;5036985;28;20540;-72
2021/09/12 09:15:08;;;;;;;19.17;11.53;;;;;;;;;;5047438;28;20454;-73
2021/09/12 09:17:39;;;;;;;18.10;12.43;;;;;;;;;;5056581;28;20453;-71
2021/09/12 09:20:08;;;;;;;19.80;14.27;;;;;;;;;;5043822;28;20882;-71
2021/09/12 09:22:37;;;;;;;14.40;11.47;;;;;;;;;;5037148;28;20887;-71
2021/09/12 09:25:16;;;;;;;16.80;12.03;;;;;;;;;;5056699;28;20534;-73
2021/09/12 09:28:01;;;;;;;17.23;11.30;;;;;;;;;;5037316;28;20491;-73
2021/09/12 09:30:32;;;;;;;21.10;11.80;;;;;;;;;;5037662;28;20468;-72
2021/09/12 09:33:17;;;;;;;16.57;10.53;;;;;;;;;;5037629;28;20500;-71
2021/09/12 09:35:52;;;;;;;16.80;11.43;;;;;;;;;;5037338;28;20520;-73
2021/09/12 09:38:21;;;;;;;14.07;10.93;;;;;;;;;;5037667;28;20511;-73
2021/09/12 09:41:06;;;;;;;19.20;11.37;;;;;;;;;;5036233;28;20481;-73
2021/09/12 09:43:38;;;;;;;18.77;10.20;;;;;;;;;;5053698;28;20500;-72
2021/09/12 09:46:06;;;;;;;17.33;10.20;;;;;;;;;;5042450;28;20469;-73
2021/09/12 09:48:35;;;;;;;14.83;9.93;;;;;;;;;;5036932;28;20544;-73
2021/09/12 09:51:06;;;;;;;13.43;10.77;;;;;;;;;;5038322;28;20465;-72
2021/09/12 09:53:37;;;;;;;19.70;10.97;;;;;;;;;;5053999;28;20465;-71
2021/09/12 09:56:08;;;;;;;12.77;10.03;;;;;;;;;;5044017;28;20890;-72
2021/09/12 09:58:44;;;;;;;15.73;13.63;;;;;;;;;;5036721;28;20501;-72
2021/09/12 10:01:12;;;;;;;20.50;10.90;;;;;;;;;;5036733;28;20592;-71
2021/09/12 10:03:40;;;;;;;15.27;10.10;;;;;;;;;;5035981;28;20524;-71
2021/09/12 10:06:08;;;;;;;16.40;11.93;;;;;;;;;;5049298;28;20450;-73
2021/09/12 10:08:36;;;;;;;16.00;11.07;;;;;;;;;;5053026;28;20763;-72
2021/09/12 10:11:03;;;;;;;15.27;11.50;;;;;;;;;;5036855;28;20477;-72
2021/09/12 10:13:33;;;;;;;20.43;10.73;;;;;;;;;;5036683;28;20447;-72
2021/09/12 10:16:03;;;;;;;18.63;12.23;;;;;;;;;;5041120;28;20469;-72
2021/09/12 10:18:41;;;;;;;14.77;10.83;;;;;;;;;;5055839;28;20493;-72
2021/09/12 10:21:23;;;;;;;14.47;11.70;;;;;;;;;;5052100;28;20454;-72
2021/09/12 10:24:00;;;;;;;14.70;11.23;;;;;;;;;;5051573;28;20453;-72
2021/09/12 10:26:29;;;;;;;18.33;11.47;;;;;;;;;;5056218;28;20577;-72
2021/09/12 10:28:58;;;;;;;13.87;11.53;;;;;;;;;;5055812;28;20552;-72
2021/09/12 10:31:39;;;;;;;19.43;10.00;;;;;;;;;;5055731;28;20453;-72
2021/09/12 10:34:08;;;;;;;12.70;10.33;;;;;;;;;;5056571;28;20481;-72
2021/09/12 10:36:38;;;;;;;15.57;10.73;;;;;;;;;;5056378;28;20920;-72
2021/09/12 10:39:24;;;;;;;14.73;9.43;;;;;;;;;;5056247;28;20588;-72
2021/09/12 10:42:08;;;;;;;14.17;9.40;;;;;;;;;;5056717;28;20453;-72
2021/09/12 10:44:37;;;;;;;12.60;9.93;;;;;;;;;;5056050;28;20476;-72
2021/09/12 10:47:07;;;;;;;11.60;8.90;;;;;;;;;;5056694;28;20908;-72
2021/09/12 10:49:35;;;;;;;14.40;11.07;;;;;;;;;;5056085;28;20887;-72
2021/09/12 10:52:09;;;;;;;11.90;10.17;;;;;;;;;;5050262;28;20741;-72
2021/09/12 10:54:51;;;;;;;14.43;9.47;;;;;;;;;;5048244;28;20523;-72
2021/09/12 10:57:19;;;;;;;12.37;8.70;;;;;;;;;;5046251;28;20479;-72
2021/09/12 10:59:49;;;;;;;14.70;9.90;;;;;;;;;;5035773;28;20922;-72
2021/09/12 11:02:22;;;;;;;10.37;8.70;;;;;;;;;;5052685;28;20453;-72
2021/09/12 11:04:54;;;;;;;11.70;8.90;;;;;;;;;;5051547;28;20445;-72
2021/09/12 11:07:26;;;;;;;10.43;9.33;;;;;;;;;;5043269;28;20486;-73
2021/09/12 11:09:53;;;;;;;12.87;8.43;;;;;;;;;;5035930;28;20474;-73
2021/09/12 11:12:29;;;;;;;11.00;8.40;;;;;;;;;;5041861;28;20897;-72
2021/09/12 11:15:02;;;;;;;16.30;11.83;;;;;;;;;;5055459;28;20480;-73
2021/09/12 11:17:29;;;;;;;10.87;9.73;;;;;;;;;;5055566;28;20457;-72
2021/09/12 11:20:00;;;;;;;12.73;8.30;;;;;;;;;;5055153;28;20520;-73
2021/09/12 11:22:28;;;;;;;13.27;9.00;;;;;;;;;;5055476;28;20466;-72
2021/09/12 11:25:10;;;;;;;17.87;9.80;;;;;;;;;;5054955;28;20739;-72
2021/09/12 11:27:38;;;;;;;13.53;9.57;;;;;;;;;;5044935;28;20462;-73
2021/09/12 11:30:10;;;;;;;11.90;8.30;;;;;;;;;;5035050;28;20549;-73
2021/09/12 11:32:38;;;;;;;14.70;9.77;;;;;;;;;;5035274;28;20481;-73
2021/09/12 11:35:08;;;;;;;10.30;8.17;;;;;;;;;;5050920;28;20752;-73
2021/09/12 11:37:36;;;;;;;12.50;8.87;;;;;;;;;;5075006;28;20464;-74
2021/09/12 11:40:04;;;;;;;12.47;9.27;;;;;;;;;;5054932;28;20873;-74
2021/09/12 11:42:32;;;;;;;9.33;8.00;;;;;;;;;;5054226;28;20469;-73
2021/09/12 11:45:01;;;;;;;9.17;7.80;;;;;;;;;;5053985;28;20529;-73
2021/09/12 11:47:33;;;;;;;10.03;8.23;;;;;;;;;;5044716;28;20753;-73
2021/09/12 11:50:14;;;;;;;9.20;7.63;;;;;;;;;;5048782;28;20492;-74
2021/09/12 11:52:47;;;;;;;11.07;7.73;;;;;;;;;;5034629;28;20461;-74
2021/09/12 11:55:23;;;;;;;9.20;7.03;;;;;;;;;;5053271;28;20452;-74
2021/09/12 11:57:59;;;;;;;9.57;7.97;;;;;;;;;;5047325;28;20472;-74
2021/09/12 12:00:27;;;;;;;9.40;7.40;;;;;;;;;;5051243;28;20807;-72
2021/09/12 12:03:10;;;;;;;10.30;7.30;;;;;;;;;;5054713;28;20544;-73
2021/09/12 12:05:40;;;;;;;11.33;7.80;;;;;;;;;;5051454;28;20908;-73
2021/09/12 12:08:13;;;;;;;11.20;7.37;;;;;;;;;;5034427;28;20486;-73
2021/09/12 12:10:42;;;;;;;11.57;8.30;;;;;;;;;;5034931;28;20503;-73
2021/09/12 12:13:10;;;;;;;9.80;6.97;;;;;;;;;;5034602;28;21072;-73
2021/09/12 12:15:39;;;;;;;11.90;8.97;;;;;;;;;;5034598;28;20455;-74
2021/09/12 12:18:15;;;;;;;9.70;8.20;;;;;;;;;;5048802;28;20489;-74
2021/09/12 12:20:44;;;;;;;11.10;8.03;;;;;;;;;;5053643;28;20484;-73
2021/09/12 12:23:22;;;;;;;12.53;8.73;;;;;;;;;;5055937;28;20742;-72
2021/09/12 12:25:54;;;;;;;9.73;8.03;;;;;;;;;;5057016;28;21061;-73
2021/09/12 12:28:26;;;;;;;12.70;9.40;;;;;;;;;;5048362;28;20449;-73
2021/09/12 12:31:10;;;;;;;11.00;8.93;;;;;;;;;;5058680;28;20856;-73
2021/09/12 12:33:40;;;;;;;11.03;7.97;;;;;;;;;;5055871;28;20498;-73
2021/09/12 12:36:09;;;;;;;13.30;8.63;;;;;;;;;;5040730;28;20446;-73
2021/09/12 12:38:37;;;;;;;9.77;7.70;;;;;;;;;;5039618;28;20459;-73
2021/09/12 12:41:11;;;;;;;10.73;9.03;;;;;;;;;;5050946;28;20558;-73
2021/09/12 12:43:39;;;;;;;10.30;8.50;;;;;;;;;;5058774;28;20827;-73
2021/09/12 12:46:07;;;;;;;11.33;8.97;;;;;;;;;;5040085;28;20537;-73
2021/09/12 12:48:43;;;;;;;11.80;9.60;;;;;;;;;;5038262;28;20982;-73
2021/09/12 12:51:13;;;;;;;9.87;8.00;;;;;;;;;;5051160;28;20798;-74
2021/09/12 12:53:46;;;;;;;15.90;7.50;;;;;;;;;;5055861;28;20476;-73
2021/09/12 12:56:16;;;;;;;9.77;7.67;;;;;;;;;;5058095;28;20496;-74
2021/09/12 12:58:48;;;;;;;10.33;7.00;;;;;;;;;;5051266;28;20531;-74
2021/09/12 13:01:16;;;;;;;17.97;7.90;;;;;;;;;;5038110;28;20496;-73
2021/09/12 13:03:44;;;;;;;8.40;6.77;;;;;;;;;;5038402;28;20462;-73
2021/09/12 13:06:14;;;;;;;8.20;5.67;;;;;;;;;;5038396;28;20902;-72
2021/09/12 13:08:45;;;;;;;7.83;7.03;;;;;;;;;;5038034;28;20494;-72
2021/09/12 13:11:14;;;;;;;9.80;7.07;;;;;;;;;;5039252;28;20813;-74
2021/09/12 13:13:44;;;;;;;12.00;6.53;;;;;;;;;;5046962;28;20598;-74
2021/09/12 13:16:15;;;;;;;10.27;7.50;;;;;;;;;;5038368;28;20534;-74
2021/09/12 13:18:50;;;;;;;13.90;8.90;;;;;;;;;;5039557;28;21087;-74
2021/09/12 13:21:19;;;;;;;12.70;9.07;;;;;;;;;;5039074;28;20816;-74
2021/09/12 13:23:50;;;;;;;10.07;8.23;;;;;;;;;;5038319;28;20535;-74
2021/09/12 13:26:18;;;;;;;9.10;7.77;;;;;;;;;;5038428;28;20460;-73
2021/09/12 13:28:46;;;;;;;10.10;7.37;;;;;;;;;;5051905;28;20450;-74
2021/09/12 13:31:14;;;;;;;9.40;7.87;;;;;;;;;;5056815;28;20453;-73
2021/09/12 13:33:47;;;;;;;11.07;8.77;;;;;;;;;;5046844;28;20520;-74
2021/09/12 13:36:18;;;;;;;11.73;7.83;;;;;;;;;;5038990;28;20490;-73
2021/09/12 13:38:47;;;;;;;9.70;6.73;;;;;;;;;;5039494;28;20485;-74
2021/09/12 13:41:22;;;;;;;8.07;6.70;;;;;;;;;;5040470;28;20489;-74
2021/09/12 13:43:57;;;;;;;8.07;7.03;;;;;;;;;;5039172;28;20512;-74
2021/09/12 13:46:25;;;;;;;7.93;7.00;;;;;;;;;;5036912;28;20476;-74
2021/09/12 13:48:53;;;;;;;7.00;6.30;;;;;;;;;;5037164;28;20501;-74
2021/09/12 13:51:21;;;;;;;8.93;6.63;;;;;;;;;;5055206;28;20454;-74
2021/09/12 13:53:52;;;;;;;10.20;6.00;;;;;;;;;;5043037;28;20465;-73
2021/09/12 13:56:20;;;;;;;12.03;6.10;;;;;;;;;;5038879;28;20458;-74
2021/09/12 13:58:49;;;;;;;10.30;8.10;;;;;;;;;;5042797;28;20438;-74
2021/09/12 14:01:23;;;;;;;10.53;6.97;;;;;;;;;;5043074;28;20485;-74
2021/09/12 14:03:51;;;;;;;11.33;7.67;;;;;;;;;;5037376;28;20496;-74
2021/09/12 14:06:20;;;;;;;7.20;6.13;;;;;;;;;;5044955;28;20554;-74
2021/09/12 14:11:45;;;;;;;10.93;7.13;;;;;;;;;;5038794;28;20454;-74
2021/09/12 14:14:13;;;;;;;8.07;6.03;;;;;;;;;;5056998;28;20465;-74
2021/09/12 14:16:41;;;;;;;9.13;7.40;;;;;;;;;;5056808;28;20461;-74
2021/09/12 14:19:09;;;;;;;8.30;6.67;;;;;;;;;;5056515;28;20454;-72
2021/09/12 14:21:37;;;;;;;11.53;6.33;;;;;;;;;;5036430;28;20490;-74
2021/09/12 14:24:06;;;;;;;8.20;6.23;;;;;;;;;;5035855;28;20512;-74
2021/09/12 14:26:34;;;;;;;6.73;5.97;;;;;;;;;;5037526;28;20462;-74
2021/09/12 14:29:05;;;;;;;13.43;10.80;;;;;;;;;;5041788;28;20875;-74
2021/09/12 14:31:33;;;;;;;9.30;8.20;;;;;;;;;;5048531;28;21070;-74
2021/09/12 14:34:01;;;;;;;8.07;5.87;;;;;;;;;;5056696;28;21043;-74
2021/09/12 14:36:29;;;;;;;6.30;5.67;;;;;;;;;;5054873;28;20448;-74
2021/09/12 14:38:57;;;;;;;10.87;5.93;;;;;;;;;;5036885;28;20486;-74
2021/09/12 14:41:27;;;;;;;6.40;5.50;;;;;;;;;;5037215;28;20494;-73
2021/09/12 14:43:55;;;;;;;7.53;5.83;;;;;;;;;;5055895;28;20477;-74